EGBJ/GLO METAR and TAF weather

Enter ICAO airport designator
Station Type Date Time Source
EGBJ METAR 2022/01/28 19:20 UTC NOAA

EGBJ 281920Z 22010KT 9999 FEW010 SCT030 09/09 Q1030


Station Type Date Time Source
EGBJ Decoded METAR 2022/01/28 19:20 UTC NOAA

Staverton Private , United Kingdom (EGBJ) 51-54N 002-10W
Jan 28, 2022 - 02:20 PM EST / 2022.01.28 1920 UTC
Wind: from the SW (220 degrees) at 12 MPH (10 KT):0
Visibility: greater than 7 mile(s):0
Sky conditions: partly cloudy
Temperature: 48 F (9 C)
Dew Point: 48 F (9 C)
Relative Humidity: 100%
Pressure (altimeter): 30.42 in. Hg (1030 hPa)
ob: EGBJ 281920Z 22010KT 9999 FEW010 SCT030 09/09 Q1030
cycle: 19

Station Type Date Time Source
EGBJ TAF UTC NOAA

Error!

Example: see airport list